createdAt,value
2023-01-19T00:01:42.141Z,80.99
2023-01-19T00:04:10.364Z,80.98
2023-01-19T00:06:39.253Z,80.99
2023-01-19T00:09:07.750Z,81.31
2023-01-19T00:11:36.271Z,81.28
2023-01-19T00:14:04.702Z,81.59
2023-01-19T00:16:32.812Z,81.62
2023-01-19T00:19:01.893Z,81.80
2023-01-19T00:21:29.828Z,82.12
2023-01-19T00:23:57.951Z,82.17
2023-01-19T00:26:26.697Z,82.06
2023-01-19T00:28:55.063Z,82.14
2023-01-19T00:31:23.163Z,82.45
2023-01-19T00:33:53.085Z,82.62
2023-01-19T00:36:21.426Z,82.60
2023-01-19T00:38:49.637Z,82.51
2023-01-19T00:41:19.070Z,82.70
2023-01-19T00:43:46.999Z,82.77
2023-01-19T00:46:15.483Z,82.78
2023-01-19T00:48:43.782Z,83.29
2023-01-19T00:51:11.681Z,83.59
2023-01-19T00:53:40.105Z,83.57
2023-01-19T00:56:08.200Z,83.68
2023-01-19T00:58:36.388Z,83.82
2023-01-19T01:01:06.357Z,84.03
2023-01-19T01:03:34.621Z,84.05
2023-01-19T01:06:08.333Z,84.08
2023-01-19T01:08:36.873Z,84.11
2023-01-19T01:11:05.252Z,84.06
2023-01-19T01:13:34.173Z,84.08
2023-01-19T01:16:02.338Z,84.31
2023-01-19T01:18:31.070Z,84.40
2023-01-19T01:21:06.890Z,84.36
2023-01-19T01:23:35.742Z,84.33
2023-01-19T01:26:06.136Z,84.64
2023-01-19T01:28:34.091Z,84.78
2023-01-19T01:31:02.609Z,84.68
2023-01-19T01:33:41.059Z,84.57
2023-01-19T01:36:11.731Z,84.62
2023-01-19T01:38:41.861Z,84.57
2023-01-19T01:41:11.340Z,84.72
2023-01-19T01:43:54.391Z,84.63
2023-01-19T01:46:22.925Z,84.38
2023-01-19T01:48:58.279Z,84.33
2023-01-19T01:51:34.467Z,84.37
2023-01-19T01:54:09.187Z,84.37
2023-01-19T01:56:45.311Z,84.36
2023-01-19T01:59:40.023Z,84.42
2023-01-19T02:02:40.873Z,84.54
2023-01-19T02:05:34.992Z,84.56
2023-01-19T02:08:27.655Z,84.53
2023-01-19T02:11:15.813Z,84.64
2023-01-19T02:13:45.228Z,84.84
2023-01-19T02:16:16.867Z,84.94
2023-01-19T02:18:45.669Z,84.93
2023-01-19T02:21:24.007Z,84.96
2023-01-19T02:23:57.373Z,84.97
2023-01-19T02:26:30.292Z,84.93
2023-01-19T02:29:00.974Z,84.77
2023-01-19T02:31:30.142Z,84.79
2023-01-19T02:34:00.627Z,84.82
2023-01-19T02:36:38.472Z,84.85
2023-01-19T02:39:09.821Z,84.77
2023-01-19T02:41:43.596Z,84.90
2023-01-19T02:44:14.467Z,84.82
2023-01-19T02:46:42.727Z,84.90
2023-01-19T02:49:13.250Z,84.74
2023-01-19T02:51:44.615Z,84.90
2023-01-19T02:54:28.282Z,84.99
2023-01-19T02:57:13.045Z,85.00
2023-01-19T02:59:53.641Z,85.02
2023-01-19T03:02:47.136Z,85.01
2023-01-19T03:05:27.662Z,84.86
2023-01-19T03:08:16.141Z,84.84
2023-01-19T03:11:02.658Z,84.81
2023-01-19T03:13:34.076Z,84.73
2023-01-19T03:16:13.104Z,84.70
2023-01-19T03:18:46.305Z,84.62
2023-01-19T03:21:17.156Z,84.55
2023-01-19T03:23:47.305Z,84.54
2023-01-19T03:26:25.022Z,84.66
2023-01-19T03:28:56.145Z,84.56
2023-01-19T03:31:27.448Z,84.49
2023-01-19T03:34:00.794Z,84.23
2023-01-19T03:36:45.254Z,83.97
2023-01-19T03:39:21.691Z,83.76
2023-01-19T03:41:55.794Z,83.49
2023-01-19T03:44:28.222Z,83.45
2023-01-19T03:46:59.148Z,83.25
2023-01-19T03:49:31.032Z,83.04
2023-01-19T03:51:59.891Z,82.78
2023-01-19T03:54:28.802Z,82.77
2023-01-19T03:56:57.132Z,82.62
2023-01-19T03:59:25.435Z,82.37
2023-01-19T04:01:53.803Z,82.33
2023-01-19T04:04:21.868Z,82.39
2023-01-19T04:06:50.161Z,82.15
2023-01-19T04:09:20.118Z,81.85
2023-01-19T04:11:48.640Z,81.72
2023-01-19T04:14:16.919Z,81.68
2023-01-19T04:16:45.468Z,81.62
2023-01-19T04:19:13.923Z,81.52
2023-01-19T04:21:42.124Z,81.37
2023-01-19T04:24:10.985Z,81.40
2023-01-19T04:26:39.043Z,81.26
2023-01-19T04:29:07.158Z,81.15
2023-01-19T04:31:35.955Z,81.17
2023-01-19T04:34:04.490Z,81.06
2023-01-19T04:36:32.648Z,80.82
2023-01-19T04:39:01.163Z,80.69
2023-01-19T04:41:30.331Z,80.32
2023-01-19T04:43:59.690Z,79.80
2023-01-19T04:46:28.162Z,79.51
2023-01-19T04:48:56.237Z,79.39
2023-01-19T04:51:25.099Z,79.03
2023-01-19T04:53:53.795Z,78.61
2023-01-19T04:56:22.582Z,78.29
2023-01-19T04:58:50.927Z,77.88
2023-01-19T05:01:19.090Z,77.72
2023-01-19T05:03:47.164Z,77.48
2023-01-19T05:06:16.347Z,77.52
2023-01-19T05:08:45.518Z,77.24
2023-01-19T05:11:13.664Z,76.92
2023-01-19T05:13:42.337Z,76.75
2023-01-19T05:16:10.459Z,76.75
2023-01-19T05:18:38.671Z,76.56
2023-01-19T05:21:08.003Z,76.03
2023-01-19T05:23:36.404Z,75.91
2023-01-19T05:26:05.062Z,75.89
2023-01-19T05:28:34.076Z,75.88
2023-01-19T05:31:02.664Z,75.64
2023-01-19T05:33:31.517Z,75.59
2023-01-19T05:35:59.828Z,75.42
2023-01-19T05:38:35.453Z,75.14
2023-01-19T05:41:04.039Z,75.18
2023-01-19T05:43:32.801Z,75.22
2023-01-19T05:46:01.487Z,74.93
2023-01-19T05:48:29.630Z,74.83
2023-01-19T05:50:59.468Z,74.73
2023-01-19T05:53:28.800Z,74.19
2023-01-19T05:56:05.256Z,74.03
2023-01-19T05:58:34.663Z,73.75
2023-01-19T06:01:05.671Z,73.04
2023-01-19T06:03:35.697Z,72.87
2023-01-19T06:06:04.398Z,72.93
2023-01-19T06:08:33.079Z,73.12
2023-01-19T06:11:01.168Z,72.95
2023-01-19T06:13:29.677Z,72.74
2023-01-19T06:16:01.660Z,72.68
2023-01-19T06:18:30.177Z,72.67
2023-01-19T06:21:01.263Z,72.67
2023-01-19T06:23:31.542Z,72.69
2023-01-19T06:26:00.191Z,72.68
2023-01-19T06:28:28.607Z,72.80
2023-01-19T06:30:57.797Z,72.61
2023-01-19T06:33:28.185Z,72.49
2023-01-19T06:35:56.979Z,72.38
2023-01-19T06:38:25.558Z,72.40
2023-01-19T06:40:56.300Z,72.15
2023-01-19T06:43:26.509Z,72.37
2023-01-19T06:45:56.226Z,72.14
2023-01-19T06:48:24.599Z,72.20
2023-01-19T06:50:52.975Z,72.09
2023-01-19T06:53:22.548Z,72.15
2023-01-19T06:55:50.724Z,72.06
2023-01-19T06:58:19.281Z,71.94
2023-01-19T07:00:47.717Z,72.15
2023-01-19T07:03:20.782Z,72.08
2023-01-19T07:05:53.768Z,71.94
2023-01-19T07:08:22.376Z,71.91
2023-01-19T07:11:26.218Z,71.85
2023-01-19T07:13:40.267Z,71.74
2023-01-19T07:16:32.958Z,71.74
2023-01-19T07:19:03.937Z,71.70
2023-01-19T07:21:31.969Z,71.31
2023-01-19T07:24:00.315Z,71.14
2023-01-19T07:26:28.877Z,71.01
2023-01-19T07:28:57.387Z,70.91
2023-01-19T07:31:25.500Z,70.89
2023-01-19T07:33:53.603Z,70.93
2023-01-19T07:36:21.588Z,71.01
2023-01-19T07:38:49.766Z,71.05
2023-01-19T07:41:18.346Z,71.18
2023-01-19T07:43:46.509Z,71.29
2023-01-19T07:46:14.711Z,71.50
2023-01-19T07:48:44.666Z,71.69
2023-01-19T07:51:18.140Z,72.12
2023-01-19T07:53:46.690Z,72.72
2023-01-19T07:56:15.161Z,73.02
2023-01-19T07:58:43.481Z,73.43
2023-01-19T08:01:13.750Z,73.92
2023-01-19T08:03:42.626Z,74.19
2023-01-19T08:06:20.445Z,74.47
2023-01-19T08:08:49.213Z,74.88
2023-01-19T08:11:17.625Z,75.21
2023-01-19T08:13:46.225Z,75.54
2023-01-19T08:16:14.164Z,75.89
2023-01-19T08:18:42.746Z,76.15
2023-01-19T08:21:11.558Z,76.50
2023-01-19T08:23:40.129Z,76.73
2023-01-19T08:26:33.078Z,76.87
2023-01-19T08:29:04.703Z,77.10
2023-01-19T08:31:33.245Z,77.52
2023-01-19T08:34:02.142Z,77.55
2023-01-19T08:36:30.936Z,77.72
2023-01-19T08:38:59.206Z,77.71
2023-01-19T08:41:27.390Z,77.64
2023-01-19T08:43:55.385Z,77.93
2023-01-19T08:46:23.822Z,78.08
2023-01-19T08:48:52.300Z,78.01
2023-01-19T08:51:21.464Z,78.23
2023-01-19T08:53:49.472Z,77.93
2023-01-19T08:56:20.336Z,77.92
2023-01-19T08:58:59.526Z,78.00
2023-01-19T09:01:37.657Z,77.93
2023-01-19T09:04:06.522Z,78.05
2023-01-19T09:06:34.801Z,78.17
2023-01-19T09:09:05.233Z,78.39
2023-01-19T09:11:35.327Z,78.59
2023-01-19T09:14:04.192Z,78.68
2023-01-19T09:16:32.373Z,78.87
2023-01-19T09:19:00.639Z,78.73
2023-01-19T09:21:29.153Z,78.72
2023-01-19T09:23:58.154Z,78.75
2023-01-19T09:26:26.507Z,78.87
2023-01-19T09:28:55.159Z,78.83
2023-01-19T09:31:24.218Z,78.83
2023-01-19T09:33:52.936Z,79.04
2023-01-19T09:36:21.333Z,79.48
2023-01-19T09:38:49.634Z,79.77
2023-01-19T09:41:22.658Z,79.98
2023-01-19T09:43:59.979Z,80.17
2023-01-19T09:46:40.473Z,80.16
2023-01-19T09:49:11.697Z,80.35
2023-01-19T09:51:44.458Z,80.57
2023-01-19T09:54:24.193Z,80.73
2023-01-19T09:56:53.763Z,80.85
2023-01-19T09:59:23.582Z,80.93
2023-01-19T10:02:12.546Z,81.10
2023-01-19T10:04:49.149Z,81.14
2023-01-19T10:07:53.222Z,80.91
2023-01-19T10:10:21.663Z,81.10
2023-01-19T10:12:59.173Z,81.40
2023-01-19T10:15:55.206Z,81.15
2023-01-19T10:18:43.488Z,81.21
2023-01-19T10:21:16.716Z,81.27
2023-01-19T10:23:51.012Z,80.66
2023-01-19T10:26:30.099Z,80.42
2023-01-19T10:29:02.975Z,80.36
2023-01-19T10:31:34.214Z,80.42
2023-01-19T10:34:02.364Z,80.35
2023-01-19T10:36:39.444Z,80.35
2023-01-19T10:39:13.005Z,80.41
2023-01-19T10:41:43.600Z,80.07
2023-01-19T10:44:12.506Z,79.64
2023-01-19T10:46:46.598Z,79.59
2023-01-19T10:49:36.963Z,79.57
2023-01-19T10:52:08.477Z,79.07
2023-01-19T10:54:37.511Z,78.90
2023-01-19T10:57:10.947Z,78.96
2023-01-19T10:59:51.838Z,78.90
2023-01-19T11:02:20.690Z,78.84
2023-01-19T11:04:53.271Z,78.26
2023-01-19T11:07:33.659Z,77.93
2023-01-19T11:10:26.343Z,77.61
2023-01-19T11:13:15.768Z,77.65
2023-01-19T11:16:22.102Z,77.66
2023-01-19T11:18:53.948Z,77.51
2023-01-19T11:21:26.011Z,77.47
2023-01-19T11:23:57.514Z,77.52
2023-01-19T11:26:46.795Z,77.48
2023-01-19T11:29:21.739Z,77.16
2023-01-19T11:31:51.943Z,77.14
2023-01-19T11:34:33.420Z,76.95
2023-01-19T11:37:21.367Z,76.60
2023-01-19T11:39:52.766Z,76.61
2023-01-19T11:42:22.304Z,76.56
2023-01-19T11:45:14.580Z,76.03
2023-01-19T11:47:45.498Z,75.89
2023-01-19T11:50:29.031Z,75.85
2023-01-19T11:53:16.396Z,75.69
2023-01-19T11:55:52.654Z,75.18
2023-01-19T11:58:21.683Z,75.17
2023-01-19T12:00:52.917Z,76.87
2023-01-19T12:03:41.560Z,75.89
2023-01-19T12:06:15.603Z,75.10
2023-01-19T12:08:48.650Z,75.54
2023-01-19T12:11:21.745Z,75.90
2023-01-19T12:13:53.897Z,76.16
2023-01-19T12:16:26.826Z,76.51
2023-01-19T12:19:06.468Z,76.52
2023-01-19T12:21:34.733Z,76.68
2023-01-19T12:24:13.265Z,76.45
2023-01-19T12:26:57.601Z,76.33
2023-01-19T12:29:30.829Z,74.91
2023-01-19T12:32:14.227Z,74.25
2023-01-19T12:34:46.876Z,73.20
2023-01-19T12:37:42.926Z,72.69
2023-01-19T12:40:28.232Z,71.92
2023-01-19T12:43:02.006Z,69.71
2023-01-19T12:45:33.884Z,68.00
2023-01-19T12:48:04.055Z,67.97
2023-01-19T12:50:37.993Z,68.42
2023-01-19T12:53:19.319Z,67.10
2023-01-19T12:56:00.035Z,66.71
2023-01-19T12:58:27.984Z,66.17
2023-01-19T13:01:18.956Z,66.13
2023-01-19T13:03:49.947Z,66.71
2023-01-19T13:06:18.066Z,67.15
2023-01-19T13:08:57.932Z,67.60
2023-01-19T13:11:31.322Z,67.92
2023-01-19T13:14:01.748Z,67.82
2023-01-19T13:16:30.005Z,67.82
2023-01-19T13:19:16.469Z,67.14
2023-01-19T13:21:48.544Z,66.98
2023-01-19T13:24:22.026Z,67.23
2023-01-19T13:26:50.266Z,67.31
2023-01-19T13:29:48.058Z,66.67
2023-01-19T13:32:21.772Z,66.45
2023-01-19T13:34:57.983Z,66.92
2023-01-19T13:37:39.150Z,66.82
2023-01-19T13:40:15.987Z,67.02
2023-01-19T13:42:44.838Z,67.27
2023-01-19T13:45:30.023Z,67.50
2023-01-19T13:48:03.753Z,67.87
2023-01-19T13:50:34.691Z,68.34
2023-01-19T13:53:14.708Z,68.93
2023-01-19T13:55:43.038Z,69.36
2023-01-19T13:58:22.478Z,69.54
2023-01-19T14:00:51.256Z,69.90
2023-01-19T14:03:32.258Z,69.99
2023-01-19T14:06:22.488Z,70.39
2023-01-19T14:09:19.114Z,70.43
2023-01-19T14:12:09.127Z,70.63
2023-01-19T14:14:37.424Z,70.87
2023-01-19T14:17:27.702Z,71.29
2023-01-19T14:19:58.368Z,71.53
2023-01-19T14:22:43.751Z,72.18
2023-01-19T14:25:36.773Z,73.26
2023-01-19T14:28:35.736Z,73.45
2023-01-19T14:31:18.213Z,73.80
2023-01-19T14:33:49.130Z,73.48
2023-01-19T14:36:34.331Z,73.43
2023-01-19T14:39:04.384Z,73.96
2023-01-19T14:41:48.478Z,74.98
2023-01-19T14:44:31.038Z,76.46
2023-01-19T14:47:04.413Z,77.70
2023-01-19T14:49:42.312Z,78.68
2023-01-19T14:52:40.663Z,79.79
2023-01-19T14:55:21.298Z,80.22
2023-01-19T14:57:49.608Z,80.29
2023-01-19T15:00:20.644Z,80.28
2023-01-19T15:02:49.120Z,80.29
2023-01-19T15:05:19.943Z,80.35
2023-01-19T15:07:48.502Z,80.55
2023-01-19T15:10:23.097Z,80.62
2023-01-19T15:12:53.565Z,80.60
2023-01-19T15:15:32.775Z,80.66
2023-01-19T15:18:04.149Z,80.88
2023-01-19T15:20:32.611Z,81.19
2023-01-19T15:23:01.776Z,81.58
2023-01-19T15:25:31.887Z,81.84
2023-01-19T15:28:00.396Z,82.23
2023-01-19T15:30:33.606Z,82.14
2023-01-19T15:33:03.031Z,81.62
2023-01-19T15:35:31.535Z,80.81
2023-01-19T15:37:59.568Z,80.57
2023-01-19T15:40:28.078Z,80.65
2023-01-19T15:42:56.149Z,80.67
2023-01-19T15:45:44.486Z,80.77
2023-01-19T15:48:12.999Z,80.77
2023-01-19T15:50:46.271Z,80.96
2023-01-19T15:53:20.491Z,81.03
2023-01-19T15:55:55.901Z,81.04
2023-01-19T15:58:25.128Z,81.18
2023-01-19T16:00:56.328Z,80.69
2023-01-19T16:03:28.787Z,80.51
2023-01-19T16:06:01.719Z,80.43
2023-01-19T16:08:30.178Z,80.25
2023-01-19T16:11:05.363Z,80.03
2023-01-19T16:13:35.159Z,80.36
2023-01-19T16:16:06.377Z,80.57
2023-01-19T16:18:35.124Z,80.91
2023-01-19T16:21:03.506Z,81.14
2023-01-19T16:23:32.082Z,81.11
2023-01-19T16:26:33.261Z,80.94
2023-01-19T16:29:11.127Z,80.80
2023-01-19T16:31:41.647Z,81.01
2023-01-19T16:34:10.000Z,80.49
2023-01-19T16:36:45.431Z,80.00
2023-01-19T16:39:15.518Z,80.00
2023-01-19T16:41:46.179Z,80.21
2023-01-19T16:44:16.265Z,80.55
2023-01-19T16:46:49.359Z,80.86
2023-01-19T16:49:23.608Z,81.17
2023-01-19T16:51:54.949Z,81.02
2023-01-19T16:54:28.026Z,80.80
2023-01-19T16:56:58.997Z,80.19
2023-01-19T16:59:29.156Z,79.83
2023-01-19T17:01:58.640Z,79.40
2023-01-19T17:04:27.598Z,79.35
2023-01-19T17:06:55.997Z,79.34
2023-01-19T17:09:24.591Z,79.43
2023-01-19T17:11:54.871Z,79.21
2023-01-19T17:14:23.425Z,79.09
2023-01-19T17:16:51.557Z,79.21
2023-01-19T17:19:22.778Z,78.84
2023-01-19T17:21:53.207Z,78.60
2023-01-19T17:24:21.673Z,78.35
2023-01-19T17:26:50.230Z,78.54
2023-01-19T17:29:18.755Z,78.90
2023-01-19T17:31:50.817Z,79.24
2023-01-19T17:34:21.287Z,79.33
2023-01-19T17:36:50.891Z,79.35
2023-01-19T17:39:19.397Z,79.44
2023-01-19T17:41:50.146Z,79.60
2023-01-19T17:44:18.530Z,79.34
2023-01-19T17:46:46.694Z,78.12
2023-01-19T17:49:17.087Z,78.44
2023-01-19T17:51:45.646Z,78.14
2023-01-19T17:54:14.510Z,78.40
2023-01-19T17:56:43.311Z,77.94
2023-01-19T17:59:11.630Z,77.62
2023-01-19T18:01:40.698Z,77.91
2023-01-19T18:04:10.153Z,78.00
2023-01-19T18:06:39.160Z,78.23
2023-01-19T18:09:08.050Z,77.64
2023-01-19T18:11:36.384Z,77.72
2023-01-19T18:14:05.586Z,77.45
2023-01-19T18:16:35.075Z,77.02
2023-01-19T18:19:03.109Z,76.71
2023-01-19T18:21:31.420Z,76.55
2023-01-19T18:24:02.454Z,75.91
2023-01-19T18:26:34.186Z,75.84
2023-01-19T18:29:02.881Z,75.78
2023-01-19T18:31:31.499Z,75.73
2023-01-19T18:34:00.295Z,76.21
2023-01-19T18:36:32.477Z,76.20
2023-01-19T18:39:01.312Z,76.31
2023-01-19T18:41:30.363Z,75.65
2023-01-19T18:43:59.711Z,75.42
2023-01-19T18:46:28.199Z,75.14
2023-01-19T18:48:56.935Z,74.87
2023-01-19T18:51:25.243Z,75.18
2023-01-19T18:53:54.437Z,75.58
2023-01-19T18:56:22.612Z,75.45
2023-01-19T18:58:53.384Z,75.17
2023-01-19T19:01:35.740Z,75.34
2023-01-19T19:04:04.616Z,75.26
2023-01-19T19:06:33.300Z,74.93
2023-01-19T19:09:01.658Z,74.94
2023-01-19T19:11:30.188Z,74.93
2023-01-19T19:14:01.824Z,74.75
2023-01-19T19:16:31.659Z,74.90
2023-01-19T19:19:01.930Z,74.85
2023-01-19T19:21:30.957Z,74.61
2023-01-19T19:23:59.587Z,74.49
2023-01-19T19:26:28.594Z,74.73
2023-01-19T19:28:57.650Z,74.82
2023-01-19T19:31:27.745Z,74.76
2023-01-19T19:33:58.326Z,74.54
2023-01-19T19:36:28.853Z,74.46
2023-01-19T19:38:59.518Z,74.29
2023-01-19T19:41:29.674Z,74.21
2023-01-19T19:43:58.660Z,74.40
2023-01-19T19:46:27.783Z,74.05
2023-01-19T19:48:56.176Z,74.14
2023-01-19T19:51:27.752Z,74.10
2023-01-19T19:53:59.237Z,73.93
2023-01-19T19:56:29.954Z,74.17
2023-01-19T19:58:59.988Z,74.52
2023-01-19T20:01:33.776Z,74.44
2023-01-19T20:04:10.999Z,74.63
2023-01-19T20:06:41.711Z,75.07
2023-01-19T20:09:12.797Z,75.87
2023-01-19T20:11:43.902Z,75.90
2023-01-19T20:14:16.433Z,75.92
2023-01-19T20:16:44.827Z,76.15
2023-01-19T20:19:13.558Z,76.12
2023-01-19T20:21:42.759Z,76.09
2023-01-19T20:24:17.382Z,75.74
2023-01-19T20:26:52.395Z,75.37
2023-01-19T20:29:20.969Z,75.27
2023-01-19T20:31:53.501Z,75.44
2023-01-19T20:34:25.864Z,75.68
2023-01-19T20:36:55.828Z,75.45
2023-01-19T20:39:25.213Z,75.33
2023-01-19T20:41:54.031Z,75.23
2023-01-19T20:44:24.452Z,75.19
2023-01-19T20:46:55.396Z,74.96
2023-01-19T20:49:23.767Z,74.75
2023-01-19T20:51:52.380Z,74.78
2023-01-19T20:54:26.274Z,74.80
2023-01-19T20:56:55.266Z,74.89
2023-01-19T20:59:24.134Z,75.06
2023-01-19T21:01:53.770Z,75.37
2023-01-19T21:04:22.795Z,75.36
2023-01-19T21:06:51.091Z,75.60
2023-01-19T21:09:19.344Z,75.50
2023-01-19T21:11:47.643Z,75.64
2023-01-19T21:14:15.681Z,75.64
2023-01-19T21:16:44.030Z,75.79
2023-01-19T21:19:12.627Z,75.94
2023-01-19T21:21:41.082Z,75.89
2023-01-19T21:24:10.855Z,75.80
2023-01-19T21:26:39.158Z,75.71
2023-01-19T21:29:07.873Z,75.63
2023-01-19T21:31:38.524Z,75.72
2023-01-19T21:34:07.305Z,75.73
2023-01-19T21:36:35.664Z,75.94
2023-01-19T21:39:05.917Z,76.29
2023-01-19T21:41:36.003Z,76.52
2023-01-19T21:44:04.582Z,76.56
2023-01-19T21:46:34.081Z,76.34
2023-01-19T21:49:08.043Z,76.48
2023-01-19T21:51:37.043Z,76.63
2023-01-19T21:54:06.922Z,76.70
2023-01-19T21:56:36.167Z,76.67
2023-01-19T21:59:05.143Z,76.91
2023-01-19T22:01:35.270Z,76.83
2023-01-19T22:04:03.728Z,76.72
2023-01-19T22:06:32.077Z,76.71
2023-01-19T22:09:01.308Z,76.67
2023-01-19T22:11:30.538Z,76.65
2023-01-19T22:14:02.232Z,76.55
2023-01-19T22:16:30.881Z,76.49
2023-01-19T22:19:02.005Z,76.28
2023-01-19T22:21:36.221Z,76.35
2023-01-19T22:24:05.974Z,76.47
2023-01-19T22:26:35.023Z,76.21
2023-01-19T22:29:05.523Z,75.85
2023-01-19T22:31:34.025Z,75.69
2023-01-19T22:34:02.223Z,75.70
2023-01-19T22:36:35.929Z,75.95
2023-01-19T22:39:10.694Z,75.99
2023-01-19T22:41:43.995Z,76.02
2023-01-19T22:44:17.474Z,75.83
2023-01-19T22:46:45.946Z,75.55
2023-01-19T22:49:17.013Z,75.25
2023-01-19T22:51:46.813Z,75.19
2023-01-19T22:54:15.451Z,74.78
2023-01-19T22:56:44.176Z,74.55
2023-01-19T22:59:12.450Z,74.36
2023-01-19T23:01:43.328Z,74.22
2023-01-19T23:04:15.929Z,74.01
2023-01-19T23:06:49.596Z,73.97
2023-01-19T23:09:18.356Z,73.82
2023-01-19T23:11:50.885Z,74.00
2023-01-19T23:14:22.299Z,74.18
2023-01-19T23:16:51.342Z,74.10
2023-01-19T23:19:19.562Z,74.10
2023-01-19T23:21:51.369Z,74.06
2023-01-19T23:24:19.901Z,73.85
2023-01-19T23:26:50.135Z,73.63
2023-01-19T23:29:18.707Z,73.72
2023-01-19T23:31:50.099Z,73.22
2023-01-19T23:34:18.461Z,73.18
2023-01-19T23:36:46.391Z,73.76
2023-01-19T23:39:20.731Z,73.85
2023-01-19T23:41:49.596Z,73.68
2023-01-19T23:44:18.733Z,73.66
2023-01-19T23:46:47.176Z,73.24
2023-01-19T23:49:15.685Z,73.33
2023-01-19T23:51:43.882Z,73.43
2023-01-19T23:54:12.626Z,73.36
2023-01-19T23:56:42.658Z,72.94
2023-01-19T23:59:14.212Z,72.78
